createdAt,value
2023-08-19T00:01:56.059Z,24.80
2023-08-19T00:04:23.187Z,24.80
2023-08-19T00:06:50.212Z,24.80
2023-08-19T00:09:17.077Z,24.70
2023-08-19T00:11:44.056Z,24.70
2023-08-19T00:14:11.037Z,24.70
2023-08-19T00:16:37.932Z,24.60
2023-08-19T00:19:05.270Z,24.60
2023-08-19T00:21:32.090Z,24.60
2023-08-19T00:23:59.024Z,24.60
2023-08-19T00:26:29.183Z,24.50
2023-08-19T00:28:56.123Z,24.50
2023-08-19T00:31:24.363Z,24.50
2023-08-19T00:33:51.323Z,24.50
2023-08-19T00:36:18.429Z,24.50
2023-08-19T00:38:46.870Z,24.50
2023-08-19T00:41:14.237Z,24.40
2023-08-19T00:43:41.275Z,24.40
2023-08-19T00:46:09.579Z,24.40
2023-08-19T00:48:37.313Z,24.40
2023-08-19T00:51:06.675Z,24.30
2023-08-19T00:53:35.366Z,24.30
2023-08-19T00:56:03.203Z,24.30
2023-08-19T00:58:30.027Z,24.30
2023-08-19T01:00:59.045Z,24.30
2023-08-19T01:03:26.477Z,24.30
2023-08-19T01:06:26.798Z,24.30
2023-08-19T01:09:18.716Z,24.30
2023-08-19T01:11:52.688Z,24.30
2023-08-19T01:14:37.850Z,24.20
2023-08-19T01:17:06.546Z,24.20
2023-08-19T01:19:33.818Z,24.20
2023-08-19T01:22:06.275Z,24.20
2023-08-19T01:24:37.070Z,24.20
2023-08-19T01:27:05.610Z,24.20
2023-08-19T01:29:32.557Z,24.20
2023-08-19T01:31:59.638Z,24.20
2023-08-19T01:34:27.109Z,24.20
2023-08-19T01:37:02.447Z,24.20
2023-08-19T01:39:30.174Z,24.20
2023-08-19T01:41:57.363Z,24.20
2023-08-19T01:44:25.067Z,24.20
2023-08-19T01:46:52.574Z,24.20
2023-08-19T01:49:20.471Z,24.20
2023-08-19T01:51:50.733Z,24.30
2023-08-19T01:54:17.536Z,24.30
2023-08-19T01:56:44.449Z,24.30
2023-08-19T01:59:11.373Z,24.30
2023-08-19T02:01:38.355Z,24.30
2023-08-19T02:04:05.525Z,24.30
2023-08-19T02:06:32.473Z,24.30
2023-08-19T02:08:59.312Z,24.30
2023-08-19T02:11:26.314Z,24.30
2023-08-19T02:13:53.256Z,24.40
2023-08-19T02:16:20.156Z,24.40
2023-08-19T02:18:47.175Z,24.30
2023-08-19T02:21:16.085Z,24.30
2023-08-19T02:23:43.246Z,24.30
2023-08-19T02:26:12.337Z,24.30
2023-08-19T02:28:39.501Z,24.30
2023-08-19T02:31:06.593Z,24.30
2023-08-19T02:33:33.522Z,24.20
2023-08-19T02:36:00.514Z,24.20
2023-08-19T02:38:27.473Z,24.20
2023-08-19T02:40:54.569Z,24.20
2023-08-19T02:43:21.554Z,24.20
2023-08-19T02:45:48.967Z,24.20
2023-08-19T02:48:16.566Z,24.20
2023-08-19T02:50:43.872Z,24.20
2023-08-19T02:53:10.699Z,24.20
2023-08-19T02:55:44.044Z,24.20
2023-08-19T02:58:14.588Z,24.20
2023-08-19T03:00:41.731Z,24.20
2023-08-19T03:03:08.817Z,24.20
2023-08-19T03:05:38.817Z,24.20
2023-08-19T03:08:07.035Z,24.20
2023-08-19T03:10:41.602Z,24.20
2023-08-19T03:13:09.429Z,24.20
2023-08-19T03:15:38.764Z,24.20
2023-08-19T03:18:06.600Z,24.30
2023-08-19T03:20:34.291Z,24.30
2023-08-19T03:23:01.451Z,24.30
2023-08-19T03:25:28.429Z,24.20
2023-08-19T03:27:55.416Z,24.20
2023-08-19T03:30:22.319Z,24.20
2023-08-19T03:32:49.196Z,24.20
2023-08-19T03:35:16.594Z,24.20
2023-08-19T03:37:44.520Z,24.20
2023-08-19T03:40:11.808Z,24.20
2023-08-19T03:42:38.814Z,24.20
2023-08-19T03:45:06.413Z,24.20
2023-08-19T03:47:33.587Z,24.20
2023-08-19T03:50:00.598Z,24.20
2023-08-19T03:52:28.428Z,24.20
2023-08-19T03:54:55.396Z,24.20
2023-08-19T03:57:22.222Z,24.20
2023-08-19T03:59:52.284Z,24.20
2023-08-19T04:02:19.616Z,24.20
2023-08-19T04:04:57.940Z,24.20
2023-08-19T04:07:24.825Z,24.20
2023-08-19T04:09:51.922Z,24.20
2023-08-19T04:12:18.689Z,24.20
2023-08-19T04:14:45.506Z,24.20
2023-08-19T04:17:12.679Z,24.10
2023-08-19T04:19:39.556Z,24.10
2023-08-19T04:22:06.542Z,24.10
2023-08-19T04:24:37.897Z,24.10
2023-08-19T04:27:05.088Z,24.10
2023-08-19T04:29:34.032Z,24.10
2023-08-19T04:32:02.398Z,24.10
2023-08-19T04:34:30.469Z,24.10
2023-08-19T04:36:59.798Z,24.10
2023-08-19T04:39:27.752Z,24.10
2023-08-19T04:42:00.813Z,24.10
2023-08-19T04:44:28.062Z,24.10
2023-08-19T04:46:55.140Z,24.10
2023-08-19T04:49:22.295Z,24.10
2023-08-19T04:51:49.497Z,24.10
2023-08-19T04:54:16.432Z,24.10
2023-08-19T04:56:43.403Z,24.10
2023-08-19T04:59:10.315Z,24.10
2023-08-19T05:01:37.249Z,24.10
2023-08-19T05:04:04.360Z,24.10
2023-08-19T05:06:31.411Z,24.10
2023-08-19T05:08:59.066Z,24.10
2023-08-19T05:11:26.151Z,24.10
2023-08-19T05:13:56.737Z,24.10
2023-08-19T05:16:23.643Z,24.20
2023-08-19T05:19:04.184Z,24.20
2023-08-19T05:21:31.191Z,24.20
2023-08-19T05:23:58.617Z,24.20
2023-08-19T05:26:25.705Z,24.20
2023-08-19T05:28:52.684Z,24.20
2023-08-19T05:31:19.666Z,24.20
2023-08-19T05:33:46.539Z,24.20
2023-08-19T05:36:13.389Z,24.30
2023-08-19T05:38:40.259Z,24.30
2023-08-19T05:41:07.214Z,24.30
2023-08-19T05:43:34.145Z,24.40
2023-08-19T05:46:04.900Z,24.50
2023-08-19T05:48:32.331Z,24.50
2023-08-19T05:50:59.694Z,24.60
2023-08-19T05:53:27.331Z,24.60
2023-08-19T05:55:54.199Z,24.70
2023-08-19T05:58:21.333Z,24.70
2023-08-19T06:00:48.312Z,24.70
2023-08-19T06:03:15.375Z,24.60
2023-08-19T06:05:42.608Z,24.70
2023-08-19T06:08:09.530Z,24.70
2023-08-19T06:10:36.916Z,24.70
2023-08-19T06:13:04.177Z,24.80
2023-08-19T06:15:31.146Z,24.70
2023-08-19T06:17:58.092Z,24.80
2023-08-19T06:20:25.288Z,24.80
2023-08-19T06:22:52.259Z,24.90
2023-08-19T06:25:19.127Z,24.90
2023-08-19T06:27:46.072Z,24.90
2023-08-19T06:30:13.899Z,24.90
2023-08-19T06:32:41.038Z,25.00
2023-08-19T06:35:08.556Z,25.00
2023-08-19T06:37:41.079Z,25.10
2023-08-19T06:40:12.201Z,25.20
2023-08-19T06:42:40.394Z,25.20
2023-08-19T06:45:08.394Z,25.30
2023-08-19T06:47:38.305Z,25.50
2023-08-19T06:50:05.923Z,25.60
2023-08-19T06:52:33.025Z,25.80
2023-08-19T06:55:00.065Z,25.90
2023-08-19T06:57:35.184Z,26.00
2023-08-19T07:00:10.811Z,26.10
2023-08-19T07:02:39.032Z,26.10
2023-08-19T07:05:13.805Z,26.20
2023-08-19T07:07:48.607Z,26.20
2023-08-19T07:10:17.347Z,26.30
2023-08-19T07:12:45.513Z,26.30
2023-08-19T07:15:13.476Z,26.20
2023-08-19T07:17:45.305Z,26.20
2023-08-19T07:20:16.382Z,26.30
2023-08-19T07:22:45.439Z,26.30
2023-08-19T07:25:13.211Z,26.40
2023-08-19T07:27:40.359Z,26.40
2023-08-19T07:30:08.248Z,26.50
2023-08-19T07:32:36.787Z,26.60
2023-08-19T07:35:05.325Z,26.70
2023-08-19T07:37:33.082Z,26.70
2023-08-19T07:40:00.485Z,26.80
2023-08-19T07:42:30.818Z,26.90
2023-08-19T07:44:57.662Z,26.90
2023-08-19T07:47:24.543Z,26.90
2023-08-19T07:49:51.481Z,26.90
2023-08-19T07:52:18.426Z,26.80
2023-08-19T07:54:47.263Z,26.80
2023-08-19T07:57:15.130Z,26.80
2023-08-19T07:59:42.003Z,26.90
2023-08-19T08:02:09.027Z,27.00
2023-08-19T08:04:35.850Z,27.10
2023-08-19T08:07:02.801Z,27.10
2023-08-19T08:09:29.611Z,27.20
2023-08-19T08:11:56.545Z,27.20
2023-08-19T08:14:23.453Z,27.20
2023-08-19T08:16:50.480Z,27.20
2023-08-19T08:19:17.269Z,27.20
2023-08-19T08:21:44.049Z,27.20
2023-08-19T08:24:11.025Z,27.20
2023-08-19T08:26:37.879Z,27.20
2023-08-19T08:29:04.912Z,27.20
2023-08-19T08:31:31.831Z,27.20
2023-08-19T08:33:58.755Z,27.10
2023-08-19T08:36:25.803Z,27.00
2023-08-19T08:38:52.745Z,26.90
2023-08-19T08:41:19.829Z,26.80
2023-08-19T08:43:49.654Z,26.80
2023-08-19T08:46:21.232Z,26.80
2023-08-19T08:48:48.393Z,26.90
2023-08-19T08:51:17.053Z,26.90
2023-08-19T08:53:43.902Z,27.00
2023-08-19T08:56:11.579Z,27.00
2023-08-19T08:58:38.587Z,27.10
2023-08-19T09:01:07.140Z,27.20
2023-08-19T09:03:35.049Z,27.30
2023-08-19T09:06:12.074Z,27.40
2023-08-19T09:08:48.330Z,27.60
2023-08-19T09:11:22.337Z,28.10
2023-08-19T09:13:54.905Z,28.90
2023-08-19T09:16:22.382Z,29.60
2023-08-19T09:18:49.397Z,30.50
2023-08-19T09:21:17.057Z,31.10
2023-08-19T09:23:44.168Z,31.40
2023-08-19T09:26:11.814Z,31.20
2023-08-19T09:28:39.451Z,30.80
2023-08-19T09:31:22.847Z,30.50
2023-08-19T09:33:50.106Z,30.20
2023-08-19T09:36:17.389Z,30.00
2023-08-19T09:38:44.358Z,29.80
2023-08-19T09:41:13.855Z,29.70
2023-08-19T09:43:41.560Z,29.60
2023-08-19T09:46:09.327Z,29.30
2023-08-19T09:48:36.583Z,29.30
2023-08-19T09:51:04.044Z,29.30
2023-08-19T09:53:33.972Z,29.40
2023-08-19T09:56:00.921Z,29.60
2023-08-19T09:58:27.914Z,29.60
2023-08-19T10:00:55.346Z,29.70
2023-08-19T10:03:22.947Z,29.60
2023-08-19T10:05:54.415Z,29.40
2023-08-19T10:08:26.383Z,29.30
2023-08-19T10:10:53.532Z,29.30
2023-08-19T10:13:23.201Z,29.20
2023-08-19T10:15:52.559Z,29.40
2023-08-19T10:18:23.056Z,29.80
2023-08-19T10:20:56.373Z,30.40
2023-08-19T10:23:25.599Z,31.20
2023-08-19T10:25:53.034Z,32.10
2023-08-19T10:28:30.057Z,32.80
2023-08-19T10:31:11.504Z,33.10
2023-08-19T10:33:44.122Z,33.10
2023-08-19T10:36:15.767Z,32.80
2023-08-19T10:38:57.846Z,32.30
2023-08-19T10:41:32.009Z,31.80
2023-08-19T10:44:12.665Z,31.60
2023-08-19T10:46:46.324Z,31.60
2023-08-19T10:49:14.406Z,31.40
2023-08-19T10:51:48.577Z,31.20
2023-08-19T10:54:31.232Z,31.00
2023-08-19T10:57:19.140Z,30.70
2023-08-19T10:59:47.817Z,30.30
2023-08-19T11:02:15.319Z,30.00
2023-08-19T11:04:42.442Z,29.90
2023-08-19T11:07:10.059Z,29.80
2023-08-19T11:09:37.681Z,29.70
2023-08-19T11:12:04.954Z,29.60
2023-08-19T11:14:32.007Z,29.50
2023-08-19T11:16:59.085Z,29.30
2023-08-19T11:19:26.627Z,29.20
2023-08-19T11:21:53.863Z,29.30
2023-08-19T11:24:21.000Z,29.50
2023-08-19T11:26:49.776Z,29.80
2023-08-19T11:29:17.679Z,30.00
2023-08-19T11:31:44.878Z,30.40
2023-08-19T11:34:13.301Z,30.70
2023-08-19T11:36:43.743Z,30.80
2023-08-19T11:39:12.554Z,30.60
2023-08-19T11:41:40.444Z,30.20
2023-08-19T11:44:08.147Z,29.80
2023-08-19T11:46:36.733Z,29.40
2023-08-19T11:49:10.588Z,29.00
2023-08-19T11:51:38.674Z,28.80
2023-08-19T11:54:09.182Z,28.70
2023-08-19T11:56:50.304Z,28.60
2023-08-19T11:59:18.544Z,28.50
2023-08-19T12:01:48.933Z,28.30
2023-08-19T12:04:16.994Z,27.90
2023-08-19T12:06:48.250Z,27.60
2023-08-19T12:09:19.444Z,27.40
2023-08-19T12:12:02.080Z,27.20
2023-08-19T12:14:28.858Z,27.10
2023-08-19T12:16:55.779Z,26.90
2023-08-19T12:19:22.708Z,26.80
2023-08-19T12:21:49.676Z,26.70
2023-08-19T12:24:16.601Z,26.80
2023-08-19T12:26:43.412Z,26.80
2023-08-19T12:29:10.347Z,26.80
2023-08-19T12:31:37.406Z,26.70
2023-08-19T12:34:04.737Z,26.60
2023-08-19T12:36:31.868Z,26.40
2023-08-19T12:38:58.685Z,26.20
2023-08-19T12:41:25.663Z,26.00
2023-08-19T12:43:52.607Z,25.90
2023-08-19T12:46:21.322Z,25.90
2023-08-19T12:48:48.150Z,25.80
2023-08-19T12:51:15.013Z,25.60
2023-08-19T12:53:42.061Z,25.40
2023-08-19T12:56:08.997Z,25.20
2023-08-19T12:58:35.875Z,25.10
2023-08-19T13:01:05.945Z,25.00
2023-08-19T13:03:33.099Z,24.90
2023-08-19T13:06:00.116Z,24.70
2023-08-19T13:08:26.925Z,24.60
2023-08-19T13:10:53.796Z,24.40
2023-08-19T13:13:21.215Z,24.20
2023-08-19T13:15:48.109Z,24.10
2023-08-19T13:18:16.641Z,24.00
2023-08-19T13:20:43.458Z,23.90
2023-08-19T13:23:10.345Z,23.80
2023-08-19T13:25:38.144Z,23.80
2023-08-19T13:28:05.714Z,23.80
2023-08-19T13:30:32.599Z,23.70
2023-08-19T13:32:59.500Z,23.70
2023-08-19T13:35:26.498Z,23.80
2023-08-19T13:37:53.413Z,23.90
2023-08-19T13:40:20.350Z,24.00
2023-08-19T13:42:47.179Z,24.20
2023-08-19T13:45:14.143Z,24.50
2023-08-19T13:47:41.036Z,24.70
2023-08-19T13:50:08.781Z,24.90
2023-08-19T13:52:37.139Z,24.90
2023-08-19T13:55:04.707Z,25.00
2023-08-19T13:57:31.919Z,25.00
2023-08-19T13:59:59.256Z,25.00
2023-08-19T14:02:26.293Z,25.10
2023-08-19T14:04:53.313Z,25.10
2023-08-19T14:07:20.159Z,25.00
2023-08-19T14:09:47.003Z,25.00
2023-08-19T14:12:13.853Z,25.00
2023-08-19T14:14:42.693Z,25.00
2023-08-19T14:17:11.537Z,25.30
2023-08-19T14:19:38.463Z,25.60
2023-08-19T14:22:05.366Z,25.80
2023-08-19T14:24:32.245Z,25.90
2023-08-19T14:26:59.180Z,25.90
2023-08-19T14:29:26.248Z,25.90
2023-08-19T14:31:53.103Z,26.20
2023-08-19T14:34:19.997Z,26.90
2023-08-19T14:36:46.842Z,27.80
2023-08-19T14:39:13.815Z,28.50
2023-08-19T14:41:40.756Z,28.80
2023-08-19T14:44:07.867Z,29.20
2023-08-19T14:46:35.206Z,29.70
2023-08-19T14:49:02.115Z,29.70
2023-08-19T14:51:29.005Z,29.90
2023-08-19T14:53:55.969Z,30.20
2023-08-19T14:56:22.962Z,30.50
2023-08-19T14:58:49.872Z,30.80
2023-08-19T15:01:18.617Z,30.90
2023-08-19T15:03:46.748Z,30.70
2023-08-19T15:06:13.772Z,30.50
2023-08-19T15:08:40.674Z,30.30
2023-08-19T15:11:07.608Z,30.00
2023-08-19T15:13:34.501Z,29.90
2023-08-19T15:16:01.377Z,29.90
2023-08-19T15:18:28.299Z,29.70
2023-08-19T15:20:55.498Z,29.60
2023-08-19T15:23:22.450Z,30.00
2023-08-19T15:25:49.291Z,30.10
2023-08-19T15:28:16.155Z,30.20
2023-08-19T15:30:42.995Z,30.30
2023-08-19T15:33:09.888Z,30.00
2023-08-19T15:35:36.716Z,29.80
2023-08-19T15:38:04.362Z,29.60
2023-08-19T15:40:31.214Z,29.40
2023-08-19T15:42:58.033Z,29.00
2023-08-19T15:45:24.922Z,28.70
2023-08-19T15:47:52.038Z,28.60
2023-08-19T15:50:19.701Z,28.60
2023-08-19T15:52:46.639Z,29.00
2023-08-19T15:55:13.590Z,29.50
2023-08-19T15:57:40.506Z,30.00
2023-08-19T16:00:09.523Z,30.30
2023-08-19T16:02:36.474Z,29.90
2023-08-19T16:05:04.302Z,29.90
2023-08-19T16:07:40.295Z,29.80
2023-08-19T16:10:08.812Z,29.60
2023-08-19T16:12:36.580Z,29.70
2023-08-19T16:15:04.531Z,29.80
2023-08-19T16:17:31.487Z,29.80
2023-08-19T16:19:59.061Z,29.40
2023-08-19T16:25:11.843Z,29.20
2023-08-19T16:27:39.944Z,29.30
2023-08-19T16:30:08.589Z,29.30
2023-08-19T16:32:37.994Z,29.30
2023-08-19T16:35:09.117Z,29.60
2023-08-19T16:37:36.177Z,29.80
2023-08-19T16:40:03.695Z,29.90
2023-08-19T16:42:30.576Z,30.00
2023-08-19T16:44:57.406Z,30.10
2023-08-19T16:47:24.469Z,30.10
2023-08-19T16:49:51.895Z,30.00
2023-08-19T16:52:20.997Z,29.90
2023-08-19T16:54:47.902Z,29.60
2023-08-19T16:57:14.924Z,29.50
2023-08-19T16:59:41.742Z,29.50
2023-08-19T17:02:08.867Z,29.50
2023-08-19T17:04:35.837Z,29.40
2023-08-19T17:07:03.240Z,29.40
2023-08-19T17:09:30.196Z,29.40
2023-08-19T17:11:57.127Z,29.30
2023-08-19T17:14:23.930Z,28.90
2023-08-19T17:16:51.336Z,28.70
2023-08-19T17:19:18.390Z,28.40
2023-08-19T17:21:45.307Z,28.10
2023-08-19T17:24:12.150Z,28.00
2023-08-19T17:26:40.040Z,27.80
2023-08-19T17:29:10.495Z,27.70
2023-08-19T17:31:39.189Z,27.70
2023-08-19T17:34:06.135Z,27.60
2023-08-19T17:36:33.307Z,27.50
2023-08-19T17:39:00.171Z,27.50
2023-08-19T17:41:27.097Z,27.50
2023-08-19T17:43:53.990Z,27.50
2023-08-19T17:46:20.896Z,27.40
2023-08-19T17:48:47.846Z,27.30
2023-08-19T17:51:14.834Z,27.10
2023-08-19T17:53:41.690Z,27.10
2023-08-19T17:56:10.605Z,27.10
2023-08-19T17:58:38.098Z,27.00
2023-08-19T18:01:09.188Z,26.90
2023-08-19T18:03:36.189Z,27.00
2023-08-19T18:06:05.429Z,27.10
2023-08-19T18:08:32.542Z,27.10
2023-08-19T18:10:59.416Z,26.90
2023-08-19T18:13:26.569Z,26.70
2023-08-19T18:15:53.561Z,26.50
2023-08-19T18:18:20.521Z,26.40
2023-08-19T18:20:47.519Z,26.20
2023-08-19T18:23:14.621Z,26.10
2023-08-19T18:25:41.562Z,25.90
2023-08-19T18:28:09.683Z,25.80
2023-08-19T18:30:39.998Z,25.70
2023-08-19T18:33:08.153Z,25.70
2023-08-19T18:35:35.730Z,25.60
2023-08-19T18:38:06.671Z,25.40
2023-08-19T18:40:35.795Z,25.30
2023-08-19T18:43:04.465Z,25.20
2023-08-19T18:45:32.733Z,25.10
2023-08-19T18:48:06.055Z,25.00
2023-08-19T18:50:34.850Z,24.90
2023-08-19T18:53:02.912Z,24.80
2023-08-19T18:55:31.986Z,24.80
2023-08-19T18:57:59.877Z,24.70
2023-08-19T19:00:38.782Z,24.70
2023-08-19T19:03:09.390Z,24.70
2023-08-19T19:05:42.877Z,24.60
2023-08-19T19:08:12.204Z,24.60
2023-08-19T19:10:40.487Z,24.60
2023-08-19T19:13:08.158Z,24.60
2023-08-19T19:15:35.710Z,24.50
2023-08-19T19:18:03.714Z,24.50
2023-08-19T19:20:31.921Z,24.50
2023-08-19T19:23:00.062Z,24.40
2023-08-19T19:25:28.397Z,24.40
2023-08-19T19:31:33.576Z,24.20
2023-08-19T19:34:01.325Z,24.10
2023-08-19T19:36:29.476Z,24.10
2023-08-19T19:38:56.854Z,24.10
2023-08-19T19:41:30.605Z,24.00
2023-08-19T19:43:58.340Z,23.90
2023-08-19T19:46:25.991Z,23.90
2023-08-19T19:48:55.413Z,23.80
2023-08-19T19:51:24.459Z,23.70
2023-08-19T19:54:35.638Z,23.60
2023-08-19T19:57:04.487Z,23.50
2023-08-19T19:59:32.506Z,23.40
2023-08-19T20:02:00.685Z,23.30
2023-08-19T20:04:49.336Z,23.20
2023-08-19T20:10:47.836Z,23.00
2023-08-19T20:13:20.897Z,22.90
2023-08-19T20:15:48.704Z,22.80
2023-08-19T20:18:16.754Z,22.80
2023-08-19T20:21:14.936Z,22.70
2023-08-19T20:23:49.664Z,22.60
2023-08-19T20:26:40.400Z,22.50
2023-08-19T20:29:32.814Z,22.50
2023-08-19T20:32:00.763Z,22.40
2023-08-19T20:34:27.664Z,22.30
2023-08-19T20:36:54.794Z,22.30
2023-08-19T20:39:22.085Z,22.30
2023-08-19T20:41:48.984Z,22.30
2023-08-19T20:44:16.412Z,22.30
2023-08-19T20:46:43.744Z,22.20
2023-08-19T20:49:12.728Z,22.20
2023-08-19T20:51:40.114Z,22.20
2023-08-19T20:54:07.882Z,22.20
2023-08-19T20:56:34.894Z,22.20
2023-08-19T20:59:02.108Z,22.30
2023-08-19T21:01:30.840Z,22.30
2023-08-19T21:03:58.213Z,22.30
2023-08-19T21:06:25.253Z,22.40
2023-08-19T21:08:52.217Z,22.40
2023-08-19T21:11:19.236Z,22.40
2023-08-19T21:13:46.020Z,22.40
2023-08-19T21:16:13.020Z,22.40
2023-08-19T21:18:40.107Z,22.40
2023-08-19T21:21:07.098Z,22.40
2023-08-19T21:23:36.327Z,22.40
2023-08-19T21:26:03.648Z,22.40
2023-08-19T21:28:34.893Z,22.40
2023-08-19T21:31:02.212Z,22.30
2023-08-19T21:33:29.246Z,22.20
2023-08-19T21:35:56.505Z,22.10
2023-08-19T21:38:23.702Z,22.00
2023-08-19T21:40:57.158Z,21.90
2023-08-19T21:43:24.832Z,21.80
2023-08-19T21:45:57.742Z,21.80
2023-08-19T21:48:25.218Z,21.80
2023-08-19T21:50:52.490Z,21.80
2023-08-19T21:53:20.316Z,21.80
2023-08-19T21:55:47.332Z,21.80
2023-08-19T21:58:14.508Z,21.80
2023-08-19T22:00:41.418Z,21.80
2023-08-19T22:03:09.334Z,21.70
2023-08-19T22:05:49.873Z,21.70
2023-08-19T22:08:17.844Z,21.60
2023-08-19T22:10:45.443Z,21.60
2023-08-19T22:13:13.180Z,21.50
2023-08-19T22:15:41.882Z,21.50
2023-08-19T22:18:09.617Z,21.40
2023-08-19T22:23:06.522Z,21.30
2023-08-19T22:25:33.762Z,21.30
2023-08-19T22:28:00.648Z,21.30
2023-08-19T22:30:27.556Z,21.20
2023-08-19T22:32:54.574Z,21.20
2023-08-19T22:35:21.724Z,21.20
2023-08-19T22:37:48.570Z,21.20
2023-08-19T22:40:15.678Z,21.10
2023-08-19T22:42:42.549Z,21.20
2023-08-19T22:45:09.889Z,21.20
2023-08-19T22:47:37.473Z,21.20
2023-08-19T22:50:05.301Z,21.20
2023-08-19T22:52:32.308Z,21.20
2023-08-19T22:54:59.464Z,21.30
2023-08-19T22:57:26.475Z,21.30
2023-08-19T22:59:55.023Z,21.30
2023-08-19T23:02:22.181Z,21.20
2023-08-19T23:04:49.206Z,21.20
2023-08-19T23:07:16.101Z,21.20
2023-08-19T23:09:42.985Z,21.20
2023-08-19T23:12:10.253Z,21.20
2023-08-19T23:14:37.414Z,21.10
2023-08-19T23:17:04.574Z,21.10
2023-08-19T23:19:32.549Z,21.10
2023-08-19T23:21:59.783Z,21.10
2023-08-19T23:24:26.826Z,21.10
2023-08-19T23:26:53.726Z,21.10
2023-08-19T23:29:20.521Z,21.00
2023-08-19T23:31:47.400Z,21.00
2023-08-19T23:34:14.251Z,21.00
2023-08-19T23:36:41.178Z,20.90
2023-08-19T23:39:08.699Z,20.90
2023-08-19T23:41:36.389Z,20.80
2023-08-19T23:44:03.838Z,20.80
2023-08-19T23:46:30.725Z,20.80
2023-08-19T23:48:58.056Z,20.70
2023-08-19T23:51:26.737Z,20.70
2023-08-19T23:53:57.209Z,20.60
2023-08-19T23:56:24.419Z,20.50
2023-08-19T23:58:51.778Z,20.50
